sensor_id;sensor_type;location;lat;lon;timestamp;temperature;humidity
27567;DHT22;15006;48.584;9.186;2022-12-13T00:01:27;-10.00;88.30
27567;DHT22;15006;48.584;9.186;2022-12-13T00:04:01;-10.00;88.20
27567;DHT22;15006;48.584;9.186;2022-12-13T00:06:31;-10.00;88.10
27567;DHT22;15006;48.584;9.186;2022-12-13T00:09:00;-10.10;88.10
27567;DHT22;15006;48.584;9.186;2022-12-13T00:11:28;-10.10;88.10
27567;DHT22;15006;48.584;9.186;2022-12-13T00:13:55;-10.10;88.20
27567;DHT22;15006;48.584;9.186;2022-12-13T00:16:25;-10.10;88.30
27567;DHT22;15006;48.584;9.186;2022-12-13T00:18:58;-10.10;88.40
27567;DHT22;15006;48.584;9.186;2022-12-13T00:21:29;-10.10;88.40
27567;DHT22;15006;48.584;9.186;2022-12-13T00:24:00;-10.10;88.30
27567;DHT22;15006;48.584;9.186;2022-12-13T00:26:30;-10.20;88.30
27567;DHT22;15006;48.584;9.186;2022-12-13T00:29:00;-10.20;88.60
27567;DHT22;15006;48.584;9.186;2022-12-13T00:31:28;-10.20;88.60
27567;DHT22;15006;48.584;9.186;2022-12-13T00:33:59;-10.20;88.80
27567;DHT22;15006;48.584;9.186;2022-12-13T00:36:26;-10.20;89.00
27567;DHT22;15006;48.584;9.186;2022-12-13T00:38:53;-10.20;89.10
27567;DHT22;15006;48.584;9.186;2022-12-13T00:41:28;-10.20;89.00
27567;DHT22;15006;48.584;9.186;2022-12-13T00:44:00;-10.20;89.20
27567;DHT22;15006;48.584;9.186;2022-12-13T00:46:29;-10.20;89.60
27567;DHT22;15006;48.584;9.186;2022-12-13T00:48:59;-10.20;90.00
27567;DHT22;15006;48.584;9.186;2022-12-13T00:51:30;-10.20;90.00
27567;DHT22;15006;48.584;9.186;2022-12-13T00:53:59;-10.20;89.90
27567;DHT22;15006;48.584;9.186;2022-12-13T00:56:30;-10.20;89.70
27567;DHT22;15006;48.584;9.186;2022-12-13T00:58:57;-10.20;89.50
27567;DHT22;15006;48.584;9.186;2022-12-13T01:01:26;-10.20;89.40
27567;DHT22;15006;48.584;9.186;2022-12-13T01:03:56;-10.20;89.20
27567;DHT22;15006;48.584;9.186;2022-12-13T01:06:36;-10.20;89.10
27567;DHT22;15006;48.584;9.186;2022-12-13T01:09:06;-10.20;89.10
27567;DHT22;15006;48.584;9.186;2022-12-13T01:11:34;-10.20;89.00
27567;DHT22;15006;48.584;9.186;2022-12-13T01:14:00;-10.20;88.90
27567;DHT22;15006;48.584;9.186;2022-12-13T01:16:29;-10.20;88.80
27567;DHT22;15006;48.584;9.186;2022-12-13T01:18:56;-10.30;89.10
27567;DHT22;15006;48.584;9.186;2022-12-13T01:21:22;-10.30;89.70
27567;DHT22;15006;48.584;9.186;2022-12-13T01:23:49;-10.30;90.10
27567;DHT22;15006;48.584;9.186;2022-12-13T01:26:17;-10.30;90.30
27567;DHT22;15006;48.584;9.186;2022-12-13T01:28:45;-10.20;90.50
27567;DHT22;15006;48.584;9.186;2022-12-13T01:31:15;-10.20;90.60
27567;DHT22;15006;48.584;9.186;2022-12-13T01:33:43;-10.20;90.70
27567;DHT22;15006;48.584;9.186;2022-12-13T01:36:17;-10.20;90.60
27567;DHT22;15006;48.584;9.186;2022-12-13T01:38:45;-10.10;90.50
27567;DHT22;15006;48.584;9.186;2022-12-13T01:41:17;-10.10;90.50
27567;DHT22;15006;48.584;9.186;2022-12-13T01:46:16;-10.10;90.50
27567;DHT22;15006;48.584;9.186;2022-12-13T01:49:05;-10.10;90.50
27567;DHT22;15006;48.584;9.186;2022-12-13T01:51:38;-10.00;90.70
27567;DHT22;15006;48.584;9.186;2022-12-13T01:54:12;-10.00;90.70
27567;DHT22;15006;48.584;9.186;2022-12-13T01:56:44;-10.00;90.70
27567;DHT22;15006;48.584;9.186;2022-12-13T01:59:14;-10.00;90.80
27567;DHT22;15006;48.584;9.186;2022-12-13T02:01:42;-10.00;90.70
27567;DHT22;15006;48.584;9.186;2022-12-13T02:04:10;-10.00;90.80
27567;DHT22;15006;48.584;9.186;2022-12-13T02:06:44;-9.90;91.00
27567;DHT22;15006;48.584;9.186;2022-12-13T02:09:12;-9.90;91.20
27567;DHT22;15006;48.584;9.186;2022-12-13T02:11:41;-9.90;91.60
27567;DHT22;15006;48.584;9.186;2022-12-13T02:14:08;-9.90;91.20
27567;DHT22;15006;48.584;9.186;2022-12-13T02:34:24;-9.80;91.30
27567;DHT22;15006;48.584;9.186;2022-12-13T02:45:54;-9.80;90.80
27567;DHT22;15006;48.584;9.186;2022-12-13T02:48:29;-9.80;90.70
27567;DHT22;15006;48.584;9.186;2022-12-13T02:51:00;-9.80;90.80
27567;DHT22;15006;48.584;9.186;2022-12-13T02:53:28;-9.90;90.90
27567;DHT22;15006;48.584;9.186;2022-12-13T02:55:55;-9.90;91.00
27567;DHT22;15006;48.584;9.186;2022-12-13T02:58:25;-9.90;91.00
27567;DHT22;15006;48.584;9.186;2022-12-13T03:12:33;-9.80;91.10
27567;DHT22;15006;48.584;9.186;2022-12-13T03:15:57;-9.80;90.90
27567;DHT22;15006;48.584;9.186;2022-12-13T03:18:26;-9.90;90.80
27567;DHT22;15006;48.584;9.186;2022-12-13T03:20:57;-9.90;90.70
27567;DHT22;15006;48.584;9.186;2022-12-13T03:23:27;-9.90;90.60
27567;DHT22;15006;48.584;9.186;2022-12-13T03:26:02;-9.90;90.60
27567;DHT22;15006;48.584;9.186;2022-12-13T03:28:31;-9.90;90.60
27567;DHT22;15006;48.584;9.186;2022-12-13T03:30:57;-9.90;90.60
27567;DHT22;15006;48.584;9.186;2022-12-13T03:33:23;-10.00;90.60
27567;DHT22;15006;48.584;9.186;2022-12-13T03:35:49;-10.00;90.50
27567;DHT22;15006;48.584;9.186;2022-12-13T03:38:17;-10.00;90.50
27567;DHT22;15006;48.584;9.186;2022-12-13T03:40:44;-10.00;90.50
27567;DHT22;15006;48.584;9.186;2022-12-13T03:43:10;-10.00;90.60
27567;DHT22;15006;48.584;9.186;2022-12-13T03:45:37;-10.00;90.70
27567;DHT22;15006;48.584;9.186;2022-12-13T03:48:03;-10.00;90.80
27567;DHT22;15006;48.584;9.186;2022-12-13T03:50:29;-10.00;90.80
27567;DHT22;15006;48.584;9.186;2022-12-13T03:52:59;-10.00;90.80
27567;DHT22;15006;48.584;9.186;2022-12-13T03:55:29;-10.00;90.70
27567;DHT22;15006;48.584;9.186;2022-12-13T03:57:55;-10.00;90.70
27567;DHT22;15006;48.584;9.186;2022-12-13T04:00:22;-10.00;90.60
27567;DHT22;15006;48.584;9.186;2022-12-13T04:02:48;-10.00;90.70
27567;DHT22;15006;48.584;9.186;2022-12-13T04:05:14;-10.00;90.90
27567;DHT22;15006;48.584;9.186;2022-12-13T04:07:40;-10.00;91.10
27567;DHT22;15006;48.584;9.186;2022-12-13T04:10:06;-10.00;91.20
27567;DHT22;15006;48.584;9.186;2022-12-13T04:12:32;-9.90;91.70
27567;DHT22;15006;48.584;9.186;2022-12-13T04:15:17;-9.90;91.40
27567;DHT22;15006;48.584;9.186;2022-12-13T04:17:42;-9.90;91.30
27567;DHT22;15006;48.584;9.186;2022-12-13T04:20:09;-9.80;91.20
27567;DHT22;15006;48.584;9.186;2022-12-13T04:22:36;-9.80;91.00
27567;DHT22;15006;48.584;9.186;2022-12-13T04:25:03;-9.80;90.80
27567;DHT22;15006;48.584;9.186;2022-12-13T04:27:29;-9.90;90.60
27567;DHT22;15006;48.584;9.186;2022-12-13T04:29:56;-9.80;90.40
27567;DHT22;15006;48.584;9.186;2022-12-13T04:32:22;-9.90;90.30
27567;DHT22;15006;48.584;9.186;2022-12-13T04:34:48;-9.90;90.30
27567;DHT22;15006;48.584;9.186;2022-12-13T04:37:14;-9.90;90.20
27567;DHT22;15006;48.584;9.186;2022-12-13T04:39:40;-10.00;90.20
27567;DHT22;15006;48.584;9.186;2022-12-13T04:42:06;-10.00;90.30
27567;DHT22;15006;48.584;9.186;2022-12-13T04:44:32;-10.00;90.30
27567;DHT22;15006;48.584;9.186;2022-12-13T04:46:58;-10.10;90.30
27567;DHT22;15006;48.584;9.186;2022-12-13T04:49:24;-10.10;90.40
27567;DHT22;15006;48.584;9.186;2022-12-13T04:51:50;-10.10;90.60
27567;DHT22;15006;48.584;9.186;2022-12-13T04:54:16;-10.10;90.60
27567;DHT22;15006;48.584;9.186;2022-12-13T04:56:42;-10.10;90.70
27567;DHT22;15006;48.584;9.186;2022-12-13T04:59:09;-10.10;90.90
27567;DHT22;15006;48.584;9.186;2022-12-13T05:01:35;-10.10;91.00
27567;DHT22;15006;48.584;9.186;2022-12-13T05:04:02;-10.20;91.00
27567;DHT22;15006;48.584;9.186;2022-12-13T05:06:28;-10.10;91.00
27567;DHT22;15006;48.584;9.186;2022-12-13T05:08:55;-10.10;91.00
27567;DHT22;15006;48.584;9.186;2022-12-13T05:11:21;-10.10;90.90
27567;DHT22;15006;48.584;9.186;2022-12-13T05:13:46;-10.10;90.90
27567;DHT22;15006;48.584;9.186;2022-12-13T05:16:12;-10.10;90.80
27567;DHT22;15006;48.584;9.186;2022-12-13T05:18:41;-10.10;90.90
27567;DHT22;15006;48.584;9.186;2022-12-13T05:21:09;-10.10;90.80
27567;DHT22;15006;48.584;9.186;2022-12-13T05:23:36;-10.10;90.80
27567;DHT22;15006;48.584;9.186;2022-12-13T05:26:03;-10.10;90.70
27567;DHT22;15006;48.584;9.186;2022-12-13T05:28:30;-10.10;90.70
27567;DHT22;15006;48.584;9.186;2022-12-13T05:30:58;-10.10;90.70
27567;DHT22;15006;48.584;9.186;2022-12-13T05:33:31;-10.20;90.80
27567;DHT22;15006;48.584;9.186;2022-12-13T05:35:57;-10.10;90.90
27567;DHT22;15006;48.584;9.186;2022-12-13T05:38:23;-10.10;91.00
27567;DHT22;15006;48.584;9.186;2022-12-13T05:40:49;-10.10;91.10
27567;DHT22;15006;48.584;9.186;2022-12-13T05:43:15;-10.10;91.10
27567;DHT22;15006;48.584;9.186;2022-12-13T05:45:41;-10.10;91.10
27567;DHT22;15006;48.584;9.186;2022-12-13T05:48:07;-10.10;91.10
27567;DHT22;15006;48.584;9.186;2022-12-13T05:50:36;-10.00;91.20
27567;DHT22;15006;48.584;9.186;2022-12-13T05:53:03;-10.00;91.30
27567;DHT22;15006;48.584;9.186;2022-12-13T05:55:30;-10.00;91.20
27567;DHT22;15006;48.584;9.186;2022-12-13T05:57:57;-10.00;91.30
27567;DHT22;15006;48.584;9.186;2022-12-13T06:00:27;-9.90;91.40
27567;DHT22;15006;48.584;9.186;2022-12-13T06:02:54;-9.90;91.30
27567;DHT22;15006;48.584;9.186;2022-12-13T06:05:21;-9.90;91.30
27567;DHT22;15006;48.584;9.186;2022-12-13T06:07:47;-9.90;91.10
27567;DHT22;15006;48.584;9.186;2022-12-13T06:10:13;-9.90;91.00
27567;DHT22;15006;48.584;9.186;2022-12-13T06:12:39;-9.90;90.90
27567;DHT22;15006;48.584;9.186;2022-12-13T06:15:05;-9.90;90.80
27567;DHT22;15006;48.584;9.186;2022-12-13T06:17:34;-9.90;90.70
27567;DHT22;15006;48.584;9.186;2022-12-13T06:20:01;-9.90;90.60
27567;DHT22;15006;48.584;9.186;2022-12-13T06:22:29;-9.90;90.50
27567;DHT22;15006;48.584;9.186;2022-12-13T06:24:55;-9.90;90.50
27567;DHT22;15006;48.584;9.186;2022-12-13T06:27:21;-10.00;90.40
27567;DHT22;15006;48.584;9.186;2022-12-13T06:29:47;-10.00;90.40
27567;DHT22;15006;48.584;9.186;2022-12-13T06:32:13;-10.00;90.50
27567;DHT22;15006;48.584;9.186;2022-12-13T06:34:39;-10.00;90.40
27567;DHT22;15006;48.584;9.186;2022-12-13T06:37:07;-10.00;90.40
27567;DHT22;15006;48.584;9.186;2022-12-13T06:39:35;-10.10;90.40
27567;DHT22;15006;48.584;9.186;2022-12-13T06:42:05;-10.10;90.40
27567;DHT22;15006;48.584;9.186;2022-12-13T06:44:33;-10.10;90.30
27567;DHT22;15006;48.584;9.186;2022-12-13T06:47:00;-10.10;90.30
27567;DHT22;15006;48.584;9.186;2022-12-13T06:49:26;-10.10;90.30
27567;DHT22;15006;48.584;9.186;2022-12-13T06:51:52;-10.20;90.30
27567;DHT22;15006;48.584;9.186;2022-12-13T06:54:19;-10.20;90.40
27567;DHT22;15006;48.584;9.186;2022-12-13T06:56:45;-10.20;90.50
27567;DHT22;15006;48.584;9.186;2022-12-13T06:59:11;-10.20;90.60
27567;DHT22;15006;48.584;9.186;2022-12-13T07:01:37;-10.20;90.70
27567;DHT22;15006;48.584;9.186;2022-12-13T07:04:05;-10.20;90.70
27567;DHT22;15006;48.584;9.186;2022-12-13T07:06:31;-10.20;90.60
27567;DHT22;15006;48.584;9.186;2022-12-13T07:08:57;-10.20;90.70
27567;DHT22;15006;48.584;9.186;2022-12-13T07:11:26;-10.20;90.70
27567;DHT22;15006;48.584;9.186;2022-12-13T07:13:54;-10.20;90.70
27567;DHT22;15006;48.584;9.186;2022-12-13T07:16:21;-10.20;90.80
27567;DHT22;15006;48.584;9.186;2022-12-13T07:18:56;-10.20;90.90
27567;DHT22;15006;48.584;9.186;2022-12-13T07:21:23;-10.20;91.00
27567;DHT22;15006;48.584;9.186;2022-12-13T07:23:50;-10.20;91.10
27567;DHT22;15006;48.584;9.186;2022-12-13T07:26:17;-10.20;91.10
27567;DHT22;15006;48.584;9.186;2022-12-13T07:28:44;-10.20;91.20
27567;DHT22;15006;48.584;9.186;2022-12-13T07:31:12;-10.20;91.30
27567;DHT22;15006;48.584;9.186;2022-12-13T07:33:38;-10.10;91.30
27567;DHT22;15006;48.584;9.186;2022-12-13T07:36:07;-10.10;91.30
27567;DHT22;15006;48.584;9.186;2022-12-13T07:38:36;-10.10;91.30
27567;DHT22;15006;48.584;9.186;2022-12-13T07:41:04;-10.00;91.30
27567;DHT22;15006;48.584;9.186;2022-12-13T07:43:31;-10.00;91.20
27567;DHT22;15006;48.584;9.186;2022-12-13T07:45:59;-10.00;91.20
27567;DHT22;15006;48.584;9.186;2022-12-13T07:48:27;-9.90;91.20
27567;DHT22;15006;48.584;9.186;2022-12-13T07:50:54;-9.90;91.10
27567;DHT22;15006;48.584;9.186;2022-12-13T07:53:26;-9.80;91.10
27567;DHT22;15006;48.584;9.186;2022-12-13T07:55:52;-9.90;91.10
27567;DHT22;15006;48.584;9.186;2022-12-13T07:58:18;-9.80;91.10
27567;DHT22;15006;48.584;9.186;2022-12-13T08:00:44;-9.80;91.10
27567;DHT22;15006;48.584;9.186;2022-12-13T08:03:11;-9.70;91.20
27567;DHT22;15006;48.584;9.186;2022-12-13T08:05:38;-9.70;91.20
27567;DHT22;15006;48.584;9.186;2022-12-13T08:08:06;-9.70;91.40
27567;DHT22;15006;48.584;9.186;2022-12-13T08:10:34;-9.60;91.60
27567;DHT22;15006;48.584;9.186;2022-12-13T08:13:01;-9.50;91.70
27567;DHT22;15006;48.584;9.186;2022-12-13T08:15:28;-9.50;91.80
27567;DHT22;15006;48.584;9.186;2022-12-13T08:17:55;-9.40;91.80
27567;DHT22;15006;48.584;9.186;2022-12-13T08:20:21;-9.30;91.90
27567;DHT22;15006;48.584;9.186;2022-12-13T08:22:55;-9.30;91.90
27567;DHT22;15006;48.584;9.186;2022-12-13T08:25:22;-9.20;91.90
27567;DHT22;15006;48.584;9.186;2022-12-13T08:27:48;-9.10;92.00
27567;DHT22;15006;48.584;9.186;2022-12-13T08:30:14;-9.00;92.10
27567;DHT22;15006;48.584;9.186;2022-12-13T08:32:40;-8.90;92.10
27567;DHT22;15006;48.584;9.186;2022-12-13T08:35:06;-8.80;92.00
27567;DHT22;15006;48.584;9.186;2022-12-13T08:37:32;-8.70;92.10
27567;DHT22;15006;48.584;9.186;2022-12-13T08:39:58;-8.60;92.00
27567;DHT22;15006;48.584;9.186;2022-12-13T08:42:24;-8.50;92.00
27567;DHT22;15006;48.584;9.186;2022-12-13T08:44:52;-8.50;92.30
27567;DHT22;15006;48.584;9.186;2022-12-13T08:47:20;-8.40;91.90
27567;DHT22;15006;48.584;9.186;2022-12-13T08:49:50;-8.30;91.90
27567;DHT22;15006;48.584;9.186;2022-12-13T08:52:19;-8.20;91.90
27567;DHT22;15006;48.584;9.186;2022-12-13T08:54:45;-8.10;91.90
27567;DHT22;15006;48.584;9.186;2022-12-13T08:57:11;-8.00;92.00
27567;DHT22;15006;48.584;9.186;2022-12-13T08:59:37;-7.90;92.00
27567;DHT22;15006;48.584;9.186;2022-12-13T09:02:03;-7.80;91.90
27567;DHT22;15006;48.584;9.186;2022-12-13T09:04:29;-7.70;91.80
27567;DHT22;15006;48.584;9.186;2022-12-13T09:06:55;-7.60;91.80
27567;DHT22;15006;48.584;9.186;2022-12-13T09:09:21;-7.60;91.70
27567;DHT22;15006;48.584;9.186;2022-12-13T09:11:47;-7.50;91.60
27567;DHT22;15006;48.584;9.186;2022-12-13T09:14:13;-7.40;91.60
27567;DHT22;15006;48.584;9.186;2022-12-13T09:16:40;-7.30;91.50
27567;DHT22;15006;48.584;9.186;2022-12-13T09:19:07;-7.20;91.50
27567;DHT22;15006;48.584;9.186;2022-12-13T09:21:33;-7.20;91.40
27567;DHT22;15006;48.584;9.186;2022-12-13T09:23:59;-7.10;91.30
27567;DHT22;15006;48.584;9.186;2022-12-13T09:26:25;-7.00;91.20
27567;DHT22;15006;48.584;9.186;2022-12-13T09:28:51;-6.90;91.10
27567;DHT22;15006;48.584;9.186;2022-12-13T09:31:18;-6.90;91.00
27567;DHT22;15006;48.584;9.186;2022-12-13T09:33:45;-6.80;90.90
27567;DHT22;15006;48.584;9.186;2022-12-13T09:36:15;-6.80;90.80
27567;DHT22;15006;48.584;9.186;2022-12-13T09:38:42;-6.70;90.70
27567;DHT22;15006;48.584;9.186;2022-12-13T09:41:16;-6.60;90.80
27567;DHT22;15006;48.584;9.186;2022-12-13T09:43:47;-6.60;90.50
27567;DHT22;15006;48.584;9.186;2022-12-13T09:46:29;-6.50;90.70
27567;DHT22;15006;48.584;9.186;2022-12-13T09:49:01;-6.40;90.50
27567;DHT22;15006;48.584;9.186;2022-12-13T09:51:30;-6.40;90.90
27567;DHT22;15006;48.584;9.186;2022-12-13T09:53:58;-6.30;91.00
27567;DHT22;15006;48.584;9.186;2022-12-13T09:56:24;-6.20;91.20
27567;DHT22;15006;48.584;9.186;2022-12-13T09:58:52;-6.10;91.20
27567;DHT22;15006;48.584;9.186;2022-12-13T10:01:21;-6.00;91.10
27567;DHT22;15006;48.584;9.186;2022-12-13T10:03:50;-5.90;91.20
27567;DHT22;15006;48.584;9.186;2022-12-13T10:06:20;-5.80;91.10
27567;DHT22;15006;48.584;9.186;2022-12-13T10:08:52;-5.70;91.00
27567;DHT22;15006;48.584;9.186;2022-12-13T10:11:20;-5.60;90.80
27567;DHT22;15006;48.584;9.186;2022-12-13T10:14:31;-5.40;91.10
27567;DHT22;15006;48.584;9.186;2022-12-13T10:16:53;-5.30;90.50
27567;DHT22;15006;48.584;9.186;2022-12-13T10:22:04;-5.10;90.20
27567;DHT22;15006;48.584;9.186;2022-12-13T10:24:53;-5.00;90.70
27567;DHT22;15006;48.584;9.186;2022-12-13T10:30:14;-4.70;90.20
27567;DHT22;15006;48.584;9.186;2022-12-13T10:40:40;-4.30;89.60
27567;DHT22;15006;48.584;9.186;2022-12-13T10:48:31;-3.90;88.90
27567;DHT22;15006;48.584;9.186;2022-12-13T10:53:35;-3.60;90.00
27567;DHT22;15006;48.584;9.186;2022-12-13T10:56:04;-3.40;89.30
27567;DHT22;15006;48.584;9.186;2022-12-13T10:58:39;-3.30;90.00
27567;DHT22;15006;48.584;9.186;2022-12-13T11:01:22;-3.00;88.90
27567;DHT22;15006;48.584;9.186;2022-12-13T11:04:03;-2.70;88.60
27567;DHT22;15006;48.584;9.186;2022-12-13T11:06:43;-2.40;89.00
27567;DHT22;15006;48.584;9.186;2022-12-13T11:09:33;-2.10;89.10
27567;DHT22;15006;48.584;9.186;2022-12-13T11:12:01;-1.60;88.50
27567;DHT22;15006;48.584;9.186;2022-12-13T11:14:33;-1.30;91.00
27567;DHT22;15006;48.584;9.186;2022-12-13T11:17:07;-0.90;90.10
27567;DHT22;15006;48.584;9.186;2022-12-13T11:19:47;-0.50;88.40
27567;DHT22;15006;48.584;9.186;2022-12-13T11:22:26;-0.20;86.70
27567;DHT22;15006;48.584;9.186;2022-12-13T11:25:08;0.10;86.50
27567;DHT22;15006;48.584;9.186;2022-12-13T11:33:17;0.90;84.60
27567;DHT22;15006;48.584;9.186;2022-12-13T11:36:07;1.10;83.00
27567;DHT22;15006;48.584;9.186;2022-12-13T11:47:47;1.50;82.00
27567;DHT22;15006;48.584;9.186;2022-12-13T11:50:27;1.60;79.30
27567;DHT22;15006;48.584;9.186;2022-12-13T11:52:59;1.60;77.10
27567;DHT22;15006;48.584;9.186;2022-12-13T11:55:45;1.60;78.20
27567;DHT22;15006;48.584;9.186;2022-12-13T11:58:35;1.60;77.40
27567;DHT22;15006;48.584;9.186;2022-12-13T12:01:10;1.50;74.80
27567;DHT22;15006;48.584;9.186;2022-12-13T12:06:37;1.40;76.60
27567;DHT22;15006;48.584;9.186;2022-12-13T12:09:12;1.40;77.70
27567;DHT22;15006;48.584;9.186;2022-12-13T12:14:45;1.40;75.70
27567;DHT22;15006;48.584;9.186;2022-12-13T12:17:15;1.40;76.00
27567;DHT22;15006;48.584;9.186;2022-12-13T12:19:47;1.40;77.70
27567;DHT22;15006;48.584;9.186;2022-12-13T12:25:45;1.50;74.60
27567;DHT22;15006;48.584;9.186;2022-12-13T12:34:30;1.70;74.80
27567;DHT22;15006;48.584;9.186;2022-12-13T12:37:34;1.90;74.40
27567;DHT22;15006;48.584;9.186;2022-12-13T12:46:21;2.00;72.20
27567;DHT22;15006;48.584;9.186;2022-12-13T12:57:58;2.10;71.60
27567;DHT22;15006;48.584;9.186;2022-12-13T13:03:43;2.00;71.00
27567;DHT22;15006;48.584;9.186;2022-12-13T13:06:20;1.90;73.00
27567;DHT22;15006;48.584;9.186;2022-12-13T13:09:04;1.80;70.90
27567;DHT22;15006;48.584;9.186;2022-12-13T13:11:39;1.80;71.80
27567;DHT22;15006;48.584;9.186;2022-12-13T13:16:55;1.50;68.50
27567;DHT22;15006;48.584;9.186;2022-12-13T13:19:39;1.40;71.60
27567;DHT22;15006;48.584;9.186;2022-12-13T13:22:34;1.30;68.60
27567;DHT22;15006;48.584;9.186;2022-12-13T13:27:42;1.10;71.60
27567;DHT22;15006;48.584;9.186;2022-12-13T13:30:25;1.00;70.90
27567;DHT22;15006;48.584;9.186;2022-12-13T13:32:54;0.90;69.60
27567;DHT22;15006;48.584;9.186;2022-12-13T13:38:25;0.70;70.40
27567;DHT22;15006;48.584;9.186;2022-12-13T13:40:52;0.60;69.30
27567;DHT22;15006;48.584;9.186;2022-12-13T13:43:28;0.50;72.70
27567;DHT22;15006;48.584;9.186;2022-12-13T13:57:25;0.10;71.10
27567;DHT22;15006;48.584;9.186;2022-12-13T14:03:29;-0.10;72.10
27567;DHT22;15006;48.584;9.186;2022-12-13T14:09:44;-0.30;70.60
27567;DHT22;15006;48.584;9.186;2022-12-13T14:19:20;-0.60;71.10
27567;DHT22;15006;48.584;9.186;2022-12-13T14:27:33;-0.90;73.40
27567;DHT22;15006;48.584;9.186;2022-12-13T14:30:13;-1.00;71.40
27567;DHT22;15006;48.584;9.186;2022-12-13T14:32:41;-1.10;72.50
27567;DHT22;15006;48.584;9.186;2022-12-13T14:35:23;-1.30;73.10
27567;DHT22;15006;48.584;9.186;2022-12-13T14:37:56;-1.40;71.30
27567;DHT22;15006;48.584;9.186;2022-12-13T14:40:29;-1.50;72.70
27567;DHT22;15006;48.584;9.186;2022-12-13T14:42:57;-1.50;72.60
27567;DHT22;15006;48.584;9.186;2022-12-13T14:45:27;-1.70;72.90
27567;DHT22;15006;48.584;9.186;2022-12-13T14:48:04;-1.70;72.80
27567;DHT22;15006;48.584;9.186;2022-12-13T14:50:37;-1.80;72.20
27567;DHT22;15006;48.584;9.186;2022-12-13T14:53:04;-2.00;72.90
27567;DHT22;15006;48.584;9.186;2022-12-13T14:55:36;-2.10;73.00
27567;DHT22;15006;48.584;9.186;2022-12-13T14:58:13;-2.20;72.40
27567;DHT22;15006;48.584;9.186;2022-12-13T15:00:42;-2.30;72.90
27567;DHT22;15006;48.584;9.186;2022-12-13T15:03:20;-2.40;74.00
27567;DHT22;15006;48.584;9.186;2022-12-13T15:05:52;-2.50;72.70
27567;DHT22;15006;48.584;9.186;2022-12-13T15:08:20;-2.60;73.30
27567;DHT22;15006;48.584;9.186;2022-12-13T15:10:49;-2.70;73.70
27567;DHT22;15006;48.584;9.186;2022-12-13T15:13:42;-2.80;73.80
27567;DHT22;15006;48.584;9.186;2022-12-13T15:19:12;-3.00;73.90
27567;DHT22;15006;48.584;9.186;2022-12-13T15:21:40;-3.20;73.70
27567;DHT22;15006;48.584;9.186;2022-12-13T15:24:07;-3.20;74.80
27567;DHT22;15006;48.584;9.186;2022-12-13T15:26:37;-3.30;75.20
27567;DHT22;15006;48.584;9.186;2022-12-13T15:29:05;-3.30;76.00
27567;DHT22;15006;48.584;9.186;2022-12-13T15:31:33;-3.40;75.50
27567;DHT22;15006;48.584;9.186;2022-12-13T15:36:48;-3.60;74.60
27567;DHT22;15006;48.584;9.186;2022-12-13T15:39:14;-3.60;75.90
27567;DHT22;15006;48.584;9.186;2022-12-13T15:41:45;-3.70;76.00
27567;DHT22;15006;48.584;9.186;2022-12-13T15:46:49;-3.80;76.30
27567;DHT22;15006;48.584;9.186;2022-12-13T15:49:35;-3.90;76.60
27567;DHT22;15006;48.584;9.186;2022-12-13T15:57:24;-4.00;76.40
27567;DHT22;15006;48.584;9.186;2022-12-13T16:03:12;-4.10;76.20
27567;DHT22;15006;48.584;9.186;2022-12-13T16:05:47;-4.10;76.20
27567;DHT22;15006;48.584;9.186;2022-12-13T16:08:30;-4.10;77.20
27567;DHT22;15006;48.584;9.186;2022-12-13T16:10:58;-4.20;76.90
27567;DHT22;15006;48.584;9.186;2022-12-13T16:13:25;-4.20;77.90
27567;DHT22;15006;48.584;9.186;2022-12-13T16:18:54;-4.30;76.80
27567;DHT22;15006;48.584;9.186;2022-12-13T16:21:22;-4.30;78.10
27567;DHT22;15006;48.584;9.186;2022-12-13T16:23:50;-4.30;78.30
27567;DHT22;15006;48.584;9.186;2022-12-13T16:26:22;-4.30;78.40
27567;DHT22;15006;48.584;9.186;2022-12-13T16:28:51;-4.40;78.00
27567;DHT22;15006;48.584;9.186;2022-12-13T16:31:23;-4.40;78.60
27567;DHT22;15006;48.584;9.186;2022-12-13T16:33:50;-4.40;78.00
27567;DHT22;15006;48.584;9.186;2022-12-13T16:36:17;-4.40;78.40
27567;DHT22;15006;48.584;9.186;2022-12-13T16:38:43;-4.40;78.40
27567;DHT22;15006;48.584;9.186;2022-12-13T16:41:09;-4.40;78.30
27567;DHT22;15006;48.584;9.186;2022-12-13T16:43:49;-4.50;78.20
27567;DHT22;15006;48.584;9.186;2022-12-13T16:46:18;-4.50;77.70
27567;DHT22;15006;48.584;9.186;2022-12-13T16:48:44;-4.50;78.50
27567;DHT22;15006;48.584;9.186;2022-12-13T16:51:10;-4.50;78.60
27567;DHT22;15006;48.584;9.186;2022-12-13T16:53:36;-4.60;78.70
27567;DHT22;15006;48.584;9.186;2022-12-13T16:56:02;-4.50;78.70
27567;DHT22;15006;48.584;9.186;2022-12-13T16:58:28;-4.50;78.80
27567;DHT22;15006;48.584;9.186;2022-12-13T17:00:54;-4.50;78.90
27567;DHT22;15006;48.584;9.186;2022-12-13T17:03:21;-4.60;79.00
27567;DHT22;15006;48.584;9.186;2022-12-13T17:05:48;-4.60;79.00
27567;DHT22;15006;48.584;9.186;2022-12-13T17:08:14;-4.60;79.10
27567;DHT22;15006;48.584;9.186;2022-12-13T17:10:43;-4.60;79.20
27567;DHT22;15006;48.584;9.186;2022-12-13T17:13:10;-4.60;79.10
27567;DHT22;15006;48.584;9.186;2022-12-13T17:15:36;-4.60;79.30
27567;DHT22;15006;48.584;9.186;2022-12-13T17:18:03;-4.60;79.50
27567;DHT22;15006;48.584;9.186;2022-12-13T17:20:29;-4.60;79.50
27567;DHT22;15006;48.584;9.186;2022-12-13T17:22:56;-4.60;80.00
27567;DHT22;15006;48.584;9.186;2022-12-13T17:25:22;-4.60;79.80
27567;DHT22;15006;48.584;9.186;2022-12-13T17:27:48;-4.60;79.90
27567;DHT22;15006;48.584;9.186;2022-12-13T17:30:16;-4.70;79.80
27567;DHT22;15006;48.584;9.186;2022-12-13T17:32:43;-4.60;79.80
27567;DHT22;15006;48.584;9.186;2022-12-13T17:35:10;-4.70;79.70
27567;DHT22;15006;48.584;9.186;2022-12-13T17:37:37;-4.70;79.90
27567;DHT22;15006;48.584;9.186;2022-12-13T17:40:03;-4.60;80.20
27567;DHT22;15006;48.584;9.186;2022-12-13T17:42:33;-4.60;80.10
27567;DHT22;15006;48.584;9.186;2022-12-13T17:44:59;-4.60;80.20
27567;DHT22;15006;48.584;9.186;2022-12-13T17:47:25;-4.60;80.20
27567;DHT22;15006;48.584;9.186;2022-12-13T17:49:51;-4.70;80.20
27567;DHT22;15006;48.584;9.186;2022-12-13T17:52:17;-4.70;80.10
27567;DHT22;15006;48.584;9.186;2022-12-13T17:54:43;-4.60;80.40
27567;DHT22;15006;48.584;9.186;2022-12-13T17:57:09;-4.70;80.50
27567;DHT22;15006;48.584;9.186;2022-12-13T17:59:36;-4.70;80.70
27567;DHT22;15006;48.584;9.186;2022-12-13T18:02:07;-4.70;80.70
27567;DHT22;15006;48.584;9.186;2022-12-13T18:04:33;-4.70;80.60
27567;DHT22;15006;48.584;9.186;2022-12-13T18:06:59;-4.70;80.70
27567;DHT22;15006;48.584;9.186;2022-12-13T18:09:25;-4.70;80.60
27567;DHT22;15006;48.584;9.186;2022-12-13T18:11:51;-4.70;80.60
27567;DHT22;15006;48.584;9.186;2022-12-13T18:14:17;-4.70;80.60
27567;DHT22;15006;48.584;9.186;2022-12-13T18:16:43;-4.70;80.70
27567;DHT22;15006;48.584;9.186;2022-12-13T18:19:11;-4.70;80.70
27567;DHT22;15006;48.584;9.186;2022-12-13T18:21:37;-4.70;80.80
27567;DHT22;15006;48.584;9.186;2022-12-13T18:24:05;-4.70;80.80
27567;DHT22;15006;48.584;9.186;2022-12-13T18:26:31;-4.70;80.90
27567;DHT22;15006;48.584;9.186;2022-12-13T18:28:58;-4.70;81.00
27567;DHT22;15006;48.584;9.186;2022-12-13T18:31:24;-4.70;81.00
27567;DHT22;15006;48.584;9.186;2022-12-13T18:33:52;-4.70;81.10